LCK weather

Rickenbacker International Airport
Columbus, Ohio, United States

Public forecast

Using degrees Fahrenheit for public forecast. Weather courtesy of forecast.io.

METAR (pilot weather report)

Retrieved 2019/03/27 02:35 UTC (4 minutes ago):

KLCK 270235Z AUTO 35007KT 10SM CLR 03/M07 A3038 RMK AO2 T00271070

TAF (pilot weather forecast)

Forecast is more than 12 hours old.

Retrieved 2019/03/26 00:36 UTC (1 day ago):

TAF KLCK 262330Z 2700/2724 03005KT P6SM SKC FM270700 VRB02KT P6SM SCT250 FM271500 16004KT P6SM FEW250 FM271700 19007KT P6SM SCT250